• Join FlightAware (Why Join?)
  • Login
  • US Flag 
10:44PM EDT


 

Airport Tracker/Info


-or-


 

Live Flight TrackerFlight Track Log ✈ SWA2122 ✈ 01-Feb-2014 ✈ KLAS - KOAK

Flight Track Log - Related Links

Times and Time Zones

All times are in EST time to prevent confusion due to time zone crossing. See the SWA2122 flight status page for this flight to view local times or setup timezone preferences in your user account.

Time Position Orientation Groundspeed Altitude Reporting Facility
EST Latitude Longitude Course Direction KTS MPH feet Rate Location/Type
04:48PM 36.1200 -115.1617 330° Northwest 191 220 4,600  Level Los Angeles Center
04:48PM 36.1200 -115.2058 270° West 235 270 6,800 3,540 Climbing Los Angeles Center
04:49PM 36.1125 -115.2361 253° West 254 292 8,200 2,220 Climbing Los Angeles Center
04:49PM 36.0950 -115.2922 249° West 258 297 9,100 780 Climbing Los Angeles Center
04:50PM 36.0683 -115.3117 211° Southwest 282 325 9,100  Level Los Angeles Center
04:50PM 36.0247 -115.3300 199° South 278 320 9,100 480 Level Los Angeles Center
04:51PM 35.9453 -115.3725 203° Southwest 287 330 9,900 1,740 Climbing Los Angeles Center
04:52PM 35.8875 -115.4494 227° Southwest 330 380 12,700 3,000 Climbing Los Angeles Center
04:53PM 35.8897 -115.5706 271° West 353 406 16,200 2,880 Climbing Los Angeles Center
04:54PM 35.8911 -115.7203 271° West 408 470 18,700 2,700 Climbing Los Angeles Center
04:55PM 35.8933 -115.8678 271° West 429 494 21,900 2,700 Climbing Los Angeles Center
04:57PM 35.9164 -115.9931 283° West 430 495 24,400 2,820 Climbing Los Angeles Center
04:58PM 35.9861 -116.1483 299° West 432 497 27,800 2,880 Climbing Los Angeles Center
04:59PM 36.0428 -116.2747 299° West 425 489 30,400 2,220 Climbing Los Angeles Center
05:00PM 36.0992 -116.4031 299° West 426 490 32,400 1,740 Climbing Los Angeles Center
05:01PM 36.1525 -116.5256 298° West 417 480 34,000 780 Climbing Los Angeles Center
05:02PM 36.2042 -116.6425 299° West 397 457 34,000  Level Los Angeles Center
05:03PM 36.2578 -116.7636 299° West 401 461 34,000  Level Los Angeles Center
05:04PM 36.3208 -116.9092 298° West 401 461 34,000  Level Los Angeles Center
05:05PM 36.3736 -117.0283 299° West 400 460 34,000  Level Los Angeles Center
05:06PM 36.4261 -117.1506 298° West 401 461 34,000  Level Los Angeles Center
05:07PM 36.4794 -117.2739 298° West 404 465 34,000  Level Los Angeles Center
05:08PM 36.5325 -117.3953 299° West 404 465 34,000  Level Los Angeles Center
05:09PM 36.5950 -117.5442 298° West 405 466 34,000  Level Los Angeles Center
05:10PM 36.6472 -117.6658 298° West 403 464 34,000  Level Los Angeles Center
05:11PM 36.6989 -117.7883 298° West 402 463 34,000  Level Los Angeles Center
05:12PM 36.7517 -117.9103 298° West 402 463 34,000  Level Los Angeles Center
05:13PM 36.8017 -118.0311 297° West 402 463 34,000  Level Los Angeles Center
05:14PM 36.8647 -118.1794 298° West 403 464 34,000  Level Los Angeles Center
05:15PM 36.9178 -118.3078 297° West 411 473 34,000  Level Los Angeles Center
05:16PM 36.9708 -118.4319 298° West 408 470 34,000  Level Los Angeles Center
05:17PM 37.0197 -118.5553 296° West 400 460 34,000  Level Los Angeles Center
05:18PM 37.0697 -118.6758 297° West 395 455 34,000  Level Los Angeles Center
05:19PM 37.1211 -118.8006 297° West 397 457 34,000  Level Los Angeles Center
05:20PM 37.1697 -118.9217 297° West 393 452 34,000  Level Los Angeles Center
05:21PM 37.2361 -119.0750 299° West 419 482 34,000  Level Los Angeles Center
05:22PM 37.2867 -119.2028 296° West 413 475 34,000  Level Los Angeles Center
05:24PM 37.3458 -119.3547 296° West 407 468 34,000  Level Oakland Center
05:25PM 37.3964 -119.4806 297° West 406 467 34,000  Level Oakland Center
05:26PM 37.4408 -119.5944 296° West 409 471 34,000  Level Oakland Center
05:27PM 37.5000 -119.7481 296° West 407 468 34,000  Level Oakland Center
05:28PM 37.5508 -119.8747 297° West 406 467 34,000  Level Oakland Center
05:29PM 37.6025 -119.9994 298° West 403 464 34,000  Level Oakland Center
05:30PM 37.6522 -120.1258 296° West 402 463 34,000 -360 Level Oakland Center
05:31PM 37.6706 -120.2631 280° West 407 468 33,300 -1,080 Descending Oakland Center
05:32PM 37.6697 -120.4069 270° West 408 470 31,900 -2,460 Descending Oakland Center
05:33PM 37.6683 -120.5556 269° West 416 479 28,300 -3,240 Descending Oakland Center
05:34PM 37.6658 -120.7033 269° West 419 482 25,400 -2,760 Descending Oakland Center
05:35PM 37.6644 -120.8431 269° West 410 472 22,700 -2,640 Descending Oakland Center
05:36PM 37.6617 -120.9772 269° West 388 447 20,000 -2,700 Descending Oakland Center
05:37PM 37.6667 -121.1167 273° West 372 428 17,400 -2,640 Descending Northern Cal TRACON
05:38PM 37.6667 -121.2333 270° West 361 415 14,900 -2,580 Descending Northern Cal TRACON
05:39PM 37.6500 -121.3667 261° West 342 394 12,300 -2,280 Descending Northern Cal TRACON
05:40PM 37.6500 -121.4667 270° West 328 377 10,600 -1,260 Descending Northern Cal TRACON
05:41PM 37.6500 -121.5667 270° West 276 318 9,800 -1,020 Descending Northern Cal TRACON
05:42PM 37.6500 -121.6500 270° West 261 300 8,600 -1,080 Descending Northern Cal TRACON
05:43PM 37.6333 -121.7500 258° West 247 284 7,700 -1,200 Descending Northern Cal TRACON
05:44PM 37.6333 -121.8167 270° West 221 254 6,200 -1,500 Descending Northern Cal TRACON
05:45PM 37.6333 -121.9000 270° West 223 257 4,900 -1,200 Descending Northern Cal TRACON
05:46PM 37.6167 -121.9667 253° West 222 255 4,000 -720 Descending Northern Cal TRACON
05:47PM 37.6167 -122.0500 270° West 210 242 3,500 -900 Descending Northern Cal TRACON
05:48PM 37.6333 -122.1000 293° West 171 197 2,200 -1,080 Descending Northern Cal TRACON
05:49PM 37.6500 -122.1500 293° West 142 163 1,400 -720 Descending Northern Cal TRACON
05:50PM 37.6833 -122.1833 322° Northwest 123 142 800 -660 Descending Northern Cal TRACON
05:51PM 37.7000 -122.2167 302° West 124 143 100 -720 Descending Northern Cal TRACON
05:53PM 37.7167 -122.2167 270° West  Level FlightAware Approximate
06:00PM 37.7213 -122.2212 270° West  Level Estimated